sensor_id;sensor_type;location;lat;lon;timestamp;temperature;humidity
4934;DHT22;2482;49.154;8.254;2023-02-03T00:01:59;7.60;99.90
4934;DHT22;2482;49.154;8.254;2023-02-03T00:04:26;7.60;99.90
4934;DHT22;2482;49.154;8.254;2023-02-03T00:06:53;7.50;99.90
4934;DHT22;2482;49.154;8.254;2023-02-03T00:09:20;7.60;99.90
4934;DHT22;2482;49.154;8.254;2023-02-03T00:11:47;7.50;99.90
4934;DHT22;2482;49.154;8.254;2023-02-03T00:14:14;7.60;99.90
4934;DHT22;2482;49.154;8.254;2023-02-03T00:16:41;7.60;99.90
4934;DHT22;2482;49.154;8.254;2023-02-03T00:19:08;7.50;99.90
4934;DHT22;2482;49.154;8.254;2023-02-03T00:21:35;7.50;99.90
4934;DHT22;2482;49.154;8.254;2023-02-03T00:24:02;7.50;99.90
4934;DHT22;2482;49.154;8.254;2023-02-03T00:26:29;7.50;99.90
4934;DHT22;2482;49.154;8.254;2023-02-03T00:28:59;7.50;99.90
4934;DHT22;2482;49.154;8.254;2023-02-03T00:31:26;7.50;99.90
4934;DHT22;2482;49.154;8.254;2023-02-03T00:33:56;7.50;99.90
4934;DHT22;2482;49.154;8.254;2023-02-03T00:36:24;7.50;99.90
4934;DHT22;2482;49.154;8.254;2023-02-03T00:38:52;7.50;99.90
4934;DHT22;2482;49.154;8.254;2023-02-03T00:41:20;7.50;99.90
4934;DHT22;2482;49.154;8.254;2023-02-03T00:43:48;7.50;99.90
4934;DHT22;2482;49.154;8.254;2023-02-03T00:46:15;7.60;99.90
4934;DHT22;2482;49.154;8.254;2023-02-03T00:48:42;7.60;99.90
4934;DHT22;2482;49.154;8.254;2023-02-03T00:51:09;7.60;99.90
4934;DHT22;2482;49.154;8.254;2023-02-03T00:53:36;7.70;99.90
4934;DHT22;2482;49.154;8.254;2023-02-03T00:56:04;7.60;99.90
4934;DHT22;2482;49.154;8.254;2023-02-03T00:58:39;7.60;99.90
4934;DHT22;2482;49.154;8.254;2023-02-03T01:01:06;7.50;99.90
4934;DHT22;2482;49.154;8.254;2023-02-03T01:03:34;7.50;99.90
4934;DHT22;2482;49.154;8.254;2023-02-03T01:06:18;7.50;99.90
4934;DHT22;2482;49.154;8.254;2023-02-03T01:08:47;7.60;99.90
4934;DHT22;2482;49.154;8.254;2023-02-03T01:11:18;7.60;99.90
4934;DHT22;2482;49.154;8.254;2023-02-03T01:13:51;7.60;99.90
4934;DHT22;2482;49.154;8.254;2023-02-03T01:16:21;7.60;99.90
4934;DHT22;2482;49.154;8.254;2023-02-03T01:18:49;7.50;99.90
4934;DHT22;2482;49.154;8.254;2023-02-03T01:21:19;7.60;99.90
4934;DHT22;2482;49.154;8.254;2023-02-03T01:23:50;7.60;99.90
4934;DHT22;2482;49.154;8.254;2023-02-03T01:26:20;7.60;99.90
4934;DHT22;2482;49.154;8.254;2023-02-03T01:28:56;7.50;99.90
4934;DHT22;2482;49.154;8.254;2023-02-03T01:31:29;7.60;99.90
4934;DHT22;2482;49.154;8.254;2023-02-03T01:34:07;7.60;99.90
4934;DHT22;2482;49.154;8.254;2023-02-03T01:36:37;7.60;99.90
4934;DHT22;2482;49.154;8.254;2023-02-03T01:39:05;7.50;99.90
4934;DHT22;2482;49.154;8.254;2023-02-03T01:41:34;7.50;99.90
4934;DHT22;2482;49.154;8.254;2023-02-03T01:50:09;7.50;99.90
4934;DHT22;2482;49.154;8.254;2023-02-03T01:52:43;7.50;99.90
4934;DHT22;2482;49.154;8.254;2023-02-03T01:55:16;7.40;99.90
4934;DHT22;2482;49.154;8.254;2023-02-03T01:57:46;7.40;99.90
4934;DHT22;2482;49.154;8.254;2023-02-03T02:00:17;7.30;99.90
4934;DHT22;2482;49.154;8.254;2023-02-03T02:02:45;7.30;99.90
4934;DHT22;2482;49.154;8.254;2023-02-03T02:08:07;7.40;99.90
4934;DHT22;2482;49.154;8.254;2023-02-03T02:10:35;7.40;99.90
4934;DHT22;2482;49.154;8.254;2023-02-03T02:13:02;7.40;99.90
4934;DHT22;2482;49.154;8.254;2023-02-03T02:34:18;7.40;99.90
4934;DHT22;2482;49.154;8.254;2023-02-03T02:43:09;7.30;99.90
4934;DHT22;2482;49.154;8.254;2023-02-03T02:45:49;7.40;99.90
4934;DHT22;2482;49.154;8.254;2023-02-03T02:50:56;7.40;99.90
4934;DHT22;2482;49.154;8.254;2023-02-03T02:53:27;7.40;99.90
4934;DHT22;2482;49.154;8.254;2023-02-03T02:56:01;7.40;99.90
4934;DHT22;2482;49.154;8.254;2023-02-03T02:58:31;7.40;99.90
4934;DHT22;2482;49.154;8.254;2023-02-03T03:01:01;7.40;99.90
4934;DHT22;2482;49.154;8.254;2023-02-03T03:03:29;7.30;99.90
4934;DHT22;2482;49.154;8.254;2023-02-03T03:06:02;7.40;99.90
4934;DHT22;2482;49.154;8.254;2023-02-03T03:08:41;7.30;99.90
4934;DHT22;2482;49.154;8.254;2023-02-03T03:11:09;7.30;99.90
4934;DHT22;2482;49.154;8.254;2023-02-03T03:13:50;7.30;99.90
4934;DHT22;2482;49.154;8.254;2023-02-03T03:16:22;7.30;99.90
4934;DHT22;2482;49.154;8.254;2023-02-03T03:18:58;7.30;99.90
4934;DHT22;2482;49.154;8.254;2023-02-03T03:21:31;7.30;99.90
4934;DHT22;2482;49.154;8.254;2023-02-03T03:24:07;7.30;99.90
4934;DHT22;2482;49.154;8.254;2023-02-03T03:26:49;7.20;99.90
4934;DHT22;2482;49.154;8.254;2023-02-03T03:29:28;7.30;99.90
4934;DHT22;2482;49.154;8.254;2023-02-03T03:31:57;7.30;99.90
4934;DHT22;2482;49.154;8.254;2023-02-03T03:34:24;7.50;99.90
4934;DHT22;2482;49.154;8.254;2023-02-03T03:39:57;7.30;99.90
4934;DHT22;2482;49.154;8.254;2023-02-03T03:42:31;7.20;99.90
4934;DHT22;2482;49.154;8.254;2023-02-03T03:50:28;7.30;99.90
4934;DHT22;2482;49.154;8.254;2023-02-03T03:53:00;7.30;99.90
4934;DHT22;2482;49.154;8.254;2023-02-03T03:55:30;7.30;99.90
4934;DHT22;2482;49.154;8.254;2023-02-03T03:58:28;7.20;99.90
4934;DHT22;2482;49.154;8.254;2023-02-03T04:01:00;7.30;99.90
4934;DHT22;2482;49.154;8.254;2023-02-03T04:03:32;7.20;99.90
4934;DHT22;2482;49.154;8.254;2023-02-03T04:06:04;7.20;99.90
4934;DHT22;2482;49.154;8.254;2023-02-03T04:08:31;7.10;99.90
4934;DHT22;2482;49.154;8.254;2023-02-03T04:10:58;7.10;99.90
4934;DHT22;2482;49.154;8.254;2023-02-03T04:13:25;7.00;99.90
4934;DHT22;2482;49.154;8.254;2023-02-03T04:15:52;7.10;99.90
4934;DHT22;2482;49.154;8.254;2023-02-03T04:18:19;7.10;99.90
4934;DHT22;2482;49.154;8.254;2023-02-03T04:20:46;7.10;99.90
4934;DHT22;2482;49.154;8.254;2023-02-03T04:23:13;7.10;99.90
4934;DHT22;2482;49.154;8.254;2023-02-03T04:25:40;7.20;99.90
4934;DHT22;2482;49.154;8.254;2023-02-03T04:28:07;7.20;99.90
4934;DHT22;2482;49.154;8.254;2023-02-03T04:30:34;7.10;99.90
4934;DHT22;2482;49.154;8.254;2023-02-03T04:33:01;7.20;99.90
4934;DHT22;2482;49.154;8.254;2023-02-03T04:35:28;7.10;99.90
4934;DHT22;2482;49.154;8.254;2023-02-03T04:37:55;7.10;99.90
4934;DHT22;2482;49.154;8.254;2023-02-03T04:40:22;7.10;99.90
4934;DHT22;2482;49.154;8.254;2023-02-03T04:42:49;7.10;99.90
4934;DHT22;2482;49.154;8.254;2023-02-03T04:45:16;7.20;99.90
4934;DHT22;2482;49.154;8.254;2023-02-03T04:47:43;7.10;99.90
4934;DHT22;2482;49.154;8.254;2023-02-03T04:50:10;7.10;99.90
4934;DHT22;2482;49.154;8.254;2023-02-03T04:52:37;7.20;99.90
4934;DHT22;2482;49.154;8.254;2023-02-03T04:55:04;7.30;99.90
4934;DHT22;2482;49.154;8.254;2023-02-03T04:57:31;7.20;99.90
4934;DHT22;2482;49.154;8.254;2023-02-03T04:59:59;7.20;99.90
4934;DHT22;2482;49.154;8.254;2023-02-03T05:02:26;7.30;99.90
4934;DHT22;2482;49.154;8.254;2023-02-03T05:04:53;7.30;99.90
4934;DHT22;2482;49.154;8.254;2023-02-03T05:07:20;7.30;99.90
4934;DHT22;2482;49.154;8.254;2023-02-03T05:09:47;7.20;99.90
4934;DHT22;2482;49.154;8.254;2023-02-03T05:12:14;7.30;99.90
4934;DHT22;2482;49.154;8.254;2023-02-03T05:14:41;7.20;99.90
4934;DHT22;2482;49.154;8.254;2023-02-03T05:17:08;7.30;99.90
4934;DHT22;2482;49.154;8.254;2023-02-03T05:19:35;7.30;99.90
4934;DHT22;2482;49.154;8.254;2023-02-03T05:22:02;7.30;99.90
4934;DHT22;2482;49.154;8.254;2023-02-03T05:24:28;7.20;99.90
4934;DHT22;2482;49.154;8.254;2023-02-03T05:26:55;7.20;99.90
4934;DHT22;2482;49.154;8.254;2023-02-03T05:29:22;7.20;99.90
4934;DHT22;2482;49.154;8.254;2023-02-03T05:31:49;7.30;99.90
4934;DHT22;2482;49.154;8.254;2023-02-03T05:34:16;7.40;99.90
4934;DHT22;2482;49.154;8.254;2023-02-03T05:36:43;7.30;99.90
4934;DHT22;2482;49.154;8.254;2023-02-03T05:39:10;7.30;99.90
4934;DHT22;2482;49.154;8.254;2023-02-03T05:41:37;7.30;99.90
4934;DHT22;2482;49.154;8.254;2023-02-03T05:44:25;7.50;99.90
4934;DHT22;2482;49.154;8.254;2023-02-03T05:46:55;7.30;99.90
4934;DHT22;2482;49.154;8.254;2023-02-03T05:49:24;7.40;99.90
4934;DHT22;2482;49.154;8.254;2023-02-03T05:51:52;7.40;99.90
4934;DHT22;2482;49.154;8.254;2023-02-03T05:54:20;7.40;99.90
4934;DHT22;2482;49.154;8.254;2023-02-03T05:56:47;7.50;99.90
4934;DHT22;2482;49.154;8.254;2023-02-03T05:59:14;7.60;99.90
4934;DHT22;2482;49.154;8.254;2023-02-03T06:01:41;7.50;99.90
4934;DHT22;2482;49.154;8.254;2023-02-03T06:04:08;7.50;99.90
4934;DHT22;2482;49.154;8.254;2023-02-03T06:06:35;7.40;99.90
4934;DHT22;2482;49.154;8.254;2023-02-03T06:09:04;7.40;99.90
4934;DHT22;2482;49.154;8.254;2023-02-03T06:11:33;7.40;99.90
4934;DHT22;2482;49.154;8.254;2023-02-03T06:14:01;7.40;99.90
4934;DHT22;2482;49.154;8.254;2023-02-03T06:16:29;7.40;99.90
4934;DHT22;2482;49.154;8.254;2023-02-03T06:18:56;7.40;99.90
4934;DHT22;2482;49.154;8.254;2023-02-03T06:21:27;7.40;99.90
4934;DHT22;2482;49.154;8.254;2023-02-03T06:23:55;7.40;99.90
4934;DHT22;2482;49.154;8.254;2023-02-03T06:26:22;7.30;99.90
4934;DHT22;2482;49.154;8.254;2023-02-03T06:28:49;7.30;99.90
4934;DHT22;2482;49.154;8.254;2023-02-03T06:31:16;7.30;99.90
4934;DHT22;2482;49.154;8.254;2023-02-03T06:33:43;7.30;99.90
4934;DHT22;2482;49.154;8.254;2023-02-03T06:36:11;7.30;99.90
4934;DHT22;2482;49.154;8.254;2023-02-03T06:38:37;7.20;99.90
4934;DHT22;2482;49.154;8.254;2023-02-03T06:41:04;7.20;99.90
4934;DHT22;2482;49.154;8.254;2023-02-03T06:43:31;7.20;99.90
4934;DHT22;2482;49.154;8.254;2023-02-03T06:45:58;7.10;99.90
4934;DHT22;2482;49.154;8.254;2023-02-03T06:48:25;7.10;99.90
4934;DHT22;2482;49.154;8.254;2023-02-03T06:50:52;7.00;99.90
4934;DHT22;2482;49.154;8.254;2023-02-03T06:53:19;7.00;99.90
4934;DHT22;2482;49.154;8.254;2023-02-03T06:55:46;7.00;99.90
4934;DHT22;2482;49.154;8.254;2023-02-03T06:58:13;6.90;99.90
4934;DHT22;2482;49.154;8.254;2023-02-03T07:00:41;7.10;99.90
4934;DHT22;2482;49.154;8.254;2023-02-03T07:03:08;7.00;99.90
4934;DHT22;2482;49.154;8.254;2023-02-03T07:05:35;7.00;99.90
4934;DHT22;2482;49.154;8.254;2023-02-03T07:08:03;7.10;99.90
4934;DHT22;2482;49.154;8.254;2023-02-03T07:10:30;7.00;99.90
4934;DHT22;2482;49.154;8.254;2023-02-03T07:13:02;7.10;99.90
4934;DHT22;2482;49.154;8.254;2023-02-03T07:15:33;7.00;99.90
4934;DHT22;2482;49.154;8.254;2023-02-03T07:18:01;7.00;99.90
4934;DHT22;2482;49.154;8.254;2023-02-03T07:20:28;6.90;99.90
4934;DHT22;2482;49.154;8.254;2023-02-03T07:22:57;6.90;99.90
4934;DHT22;2482;49.154;8.254;2023-02-03T07:25:24;6.90;99.90
4934;DHT22;2482;49.154;8.254;2023-02-03T07:27:52;7.10;99.90
4934;DHT22;2482;49.154;8.254;2023-02-03T07:30:19;7.00;99.90
4934;DHT22;2482;49.154;8.254;2023-02-03T07:32:50;7.10;99.90
4934;DHT22;2482;49.154;8.254;2023-02-03T07:35:18;7.00;99.90
4934;DHT22;2482;49.154;8.254;2023-02-03T07:37:46;7.00;99.90
4934;DHT22;2482;49.154;8.254;2023-02-03T07:40:14;7.00;99.90
4934;DHT22;2482;49.154;8.254;2023-02-03T07:42:47;7.00;99.90
4934;DHT22;2482;49.154;8.254;2023-02-03T07:45:16;6.90;99.90
4934;DHT22;2482;49.154;8.254;2023-02-03T07:47:43;7.00;99.90
4934;DHT22;2482;49.154;8.254;2023-02-03T07:50:11;7.00;99.90
4934;DHT22;2482;49.154;8.254;2023-02-03T07:52:39;7.00;99.90
4934;DHT22;2482;49.154;8.254;2023-02-03T07:55:06;7.10;99.90
4934;DHT22;2482;49.154;8.254;2023-02-03T07:57:33;7.10;99.90
4934;DHT22;2482;49.154;8.254;2023-02-03T08:00:02;7.10;99.90
4934;DHT22;2482;49.154;8.254;2023-02-03T08:02:31;7.10;99.90
4934;DHT22;2482;49.154;8.254;2023-02-03T08:04:58;7.10;99.90
4934;DHT22;2482;49.154;8.254;2023-02-03T08:07:25;7.10;99.90
4934;DHT22;2482;49.154;8.254;2023-02-03T08:09:52;7.20;99.90
4934;DHT22;2482;49.154;8.254;2023-02-03T08:12:18;7.10;99.90
4934;DHT22;2482;49.154;8.254;2023-02-03T08:14:45;7.20;99.90
4934;DHT22;2482;49.154;8.254;2023-02-03T08:17:12;7.20;99.90
4934;DHT22;2482;49.154;8.254;2023-02-03T08:19:43;7.20;99.90
4934;DHT22;2482;49.154;8.254;2023-02-03T08:22:10;7.30;99.90
4934;DHT22;2482;49.154;8.254;2023-02-03T08:24:42;7.30;99.90
4934;DHT22;2482;49.154;8.254;2023-02-03T08:27:17;7.30;99.90
4934;DHT22;2482;49.154;8.254;2023-02-03T08:29:46;7.30;99.90
4934;DHT22;2482;49.154;8.254;2023-02-03T08:32:19;7.30;99.90
4934;DHT22;2482;49.154;8.254;2023-02-03T08:34:48;7.40;99.90
4934;DHT22;2482;49.154;8.254;2023-02-03T08:37:18;7.40;99.90
4934;DHT22;2482;49.154;8.254;2023-02-03T08:39:47;7.50;99.90
4934;DHT22;2482;49.154;8.254;2023-02-03T08:42:14;7.40;99.90
4934;DHT22;2482;49.154;8.254;2023-02-03T08:44:41;7.30;99.90
4934;DHT22;2482;49.154;8.254;2023-02-03T08:47:10;7.30;99.90
4934;DHT22;2482;49.154;8.254;2023-02-03T08:49:37;7.30;99.90
4934;DHT22;2482;49.154;8.254;2023-02-03T08:52:09;7.40;99.90
4934;DHT22;2482;49.154;8.254;2023-02-03T08:54:37;7.40;99.90
4934;DHT22;2482;49.154;8.254;2023-02-03T08:57:05;7.50;99.90
4934;DHT22;2482;49.154;8.254;2023-02-03T08:59:33;7.50;99.90
4934;DHT22;2482;49.154;8.254;2023-02-03T09:02:08;7.50;99.90
4934;DHT22;2482;49.154;8.254;2023-02-03T09:04:39;7.50;99.90
4934;DHT22;2482;49.154;8.254;2023-02-03T09:07:06;7.60;99.90
4934;DHT22;2482;49.154;8.254;2023-02-03T09:09:34;7.60;99.90
4934;DHT22;2482;49.154;8.254;2023-02-03T09:12:01;7.60;99.90
4934;DHT22;2482;49.154;8.254;2023-02-03T09:14:29;7.70;99.90
4934;DHT22;2482;49.154;8.254;2023-02-03T09:17:01;7.70;99.90
4934;DHT22;2482;49.154;8.254;2023-02-03T09:19:29;7.60;99.90
4934;DHT22;2482;49.154;8.254;2023-02-03T09:21:57;7.60;99.90
4934;DHT22;2482;49.154;8.254;2023-02-03T09:24:24;7.70;99.90
4934;DHT22;2482;49.154;8.254;2023-02-03T09:26:51;7.70;99.90
4934;DHT22;2482;49.154;8.254;2023-02-03T09:29:19;7.70;99.90
4934;DHT22;2482;49.154;8.254;2023-02-03T09:31:48;7.70;99.90
4934;DHT22;2482;49.154;8.254;2023-02-03T09:34:19;7.70;99.90
4934;DHT22;2482;49.154;8.254;2023-02-03T09:36:46;7.80;99.90
4934;DHT22;2482;49.154;8.254;2023-02-03T09:39:14;7.80;99.90
4934;DHT22;2482;49.154;8.254;2023-02-03T09:45:17;7.90;99.90
4934;DHT22;2482;49.154;8.254;2023-02-03T09:47:48;7.90;99.90
4934;DHT22;2482;49.154;8.254;2023-02-03T09:50:32;7.90;99.90
4934;DHT22;2482;49.154;8.254;2023-02-03T09:53:05;7.80;99.90
4934;DHT22;2482;49.154;8.254;2023-02-03T09:55:41;7.90;99.90
4934;DHT22;2482;49.154;8.254;2023-02-03T09:58:17;7.80;99.90
4934;DHT22;2482;49.154;8.254;2023-02-03T10:00:48;7.80;99.90
4934;DHT22;2482;49.154;8.254;2023-02-03T10:12:14;7.90;99.90
4934;DHT22;2482;49.154;8.254;2023-02-03T10:17:39;7.90;99.90
4934;DHT22;2482;49.154;8.254;2023-02-03T10:22:58;7.90;99.90
4934;DHT22;2482;49.154;8.254;2023-02-03T10:25:40;7.80;99.90
4934;DHT22;2482;49.154;8.254;2023-02-03T10:28:20;7.80;99.90
4934;DHT22;2482;49.154;8.254;2023-02-03T10:30:55;7.90;99.90
4934;DHT22;2482;49.154;8.254;2023-02-03T10:33:29;7.90;99.90
4934;DHT22;2482;49.154;8.254;2023-02-03T10:36:25;8.00;99.90
4934;DHT22;2482;49.154;8.254;2023-02-03T10:39:28;8.10;99.90
4934;DHT22;2482;49.154;8.254;2023-02-03T10:42:11;8.20;99.90
4934;DHT22;2482;49.154;8.254;2023-02-03T10:44:39;8.20;99.90
4934;DHT22;2482;49.154;8.254;2023-02-03T10:47:26;8.10;99.90
4934;DHT22;2482;49.154;8.254;2023-02-03T10:49:56;8.10;99.90
4934;DHT22;2482;49.154;8.254;2023-02-03T10:52:32;8.20;99.90
4934;DHT22;2482;49.154;8.254;2023-02-03T10:55:05;8.40;99.90
4934;DHT22;2482;49.154;8.254;2023-02-03T10:57:55;8.40;99.90
4934;DHT22;2482;49.154;8.254;2023-02-03T11:00:27;8.50;99.90
4934;DHT22;2482;49.154;8.254;2023-02-03T11:05:32;8.40;99.90
4934;DHT22;2482;49.154;8.254;2023-02-03T11:07:59;8.40;99.90
4934;DHT22;2482;49.154;8.254;2023-02-03T11:10:36;8.50;99.90
4934;DHT22;2482;49.154;8.254;2023-02-03T11:15:59;8.60;99.90
4934;DHT22;2482;49.154;8.254;2023-02-03T11:19:02;8.60;99.90
4934;DHT22;2482;49.154;8.254;2023-02-03T11:27:18;8.80;99.90
4934;DHT22;2482;49.154;8.254;2023-02-03T11:30:13;8.90;99.90
4934;DHT22;2482;49.154;8.254;2023-02-03T11:32:46;8.90;99.90
4934;DHT22;2482;49.154;8.254;2023-02-03T11:37:57;8.90;99.90
4934;DHT22;2482;49.154;8.254;2023-02-03T11:40:31;8.90;99.90
4934;DHT22;2482;49.154;8.254;2023-02-03T11:43:30;8.90;99.90
4934;DHT22;2482;49.154;8.254;2023-02-03T11:46:03;8.80;99.90
4934;DHT22;2482;49.154;8.254;2023-02-03T11:48:38;8.70;99.90
4934;DHT22;2482;49.154;8.254;2023-02-03T11:53:54;8.60;99.90
4934;DHT22;2482;49.154;8.254;2023-02-03T11:57:14;8.70;99.90
4934;DHT22;2482;49.154;8.254;2023-02-03T12:26:21;8.90;99.90
4934;DHT22;2482;49.154;8.254;2023-02-03T12:34:24;8.80;99.90
4934;DHT22;2482;49.154;8.254;2023-02-03T12:37:08;8.80;99.90
4934;DHT22;2482;49.154;8.254;2023-02-03T12:40:08;8.80;99.90
4934;DHT22;2482;49.154;8.254;2023-02-03T12:42:48;8.80;99.90
4934;DHT22;2482;49.154;8.254;2023-02-03T12:45:26;8.70;99.90
4934;DHT22;2482;49.154;8.254;2023-02-03T12:48:01;8.70;99.90
4934;DHT22;2482;49.154;8.254;2023-02-03T12:50:38;8.70;99.90
4934;DHT22;2482;49.154;8.254;2023-02-03T12:53:18;8.70;99.90
4934;DHT22;2482;49.154;8.254;2023-02-03T12:56:01;8.80;99.90
4934;DHT22;2482;49.154;8.254;2023-02-03T12:59:27;8.80;99.90
4934;DHT22;2482;49.154;8.254;2023-02-03T13:01:48;8.80;99.90
4934;DHT22;2482;49.154;8.254;2023-02-03T13:04:32;8.90;99.90
4934;DHT22;2482;49.154;8.254;2023-02-03T13:07:20;8.90;99.90
4934;DHT22;2482;49.154;8.254;2023-02-03T13:09:56;9.00;99.90
4934;DHT22;2482;49.154;8.254;2023-02-03T13:12:29;9.00;99.90
4934;DHT22;2482;49.154;8.254;2023-02-03T13:17:54;9.10;99.90
4934;DHT22;2482;49.154;8.254;2023-02-03T13:20:28;9.10;99.90
4934;DHT22;2482;49.154;8.254;2023-02-03T13:22:57;9.10;99.90
4934;DHT22;2482;49.154;8.254;2023-02-03T13:37:47;8.90;99.90
4934;DHT22;2482;49.154;8.254;2023-02-03T13:43:36;9.10;99.90
4934;DHT22;2482;49.154;8.254;2023-02-03T13:46:26;9.00;99.90
4934;DHT22;2482;49.154;8.254;2023-02-03T13:48:58;8.90;99.90
4934;DHT22;2482;49.154;8.254;2023-02-03T13:51:29;8.90;99.90
4934;DHT22;2482;49.154;8.254;2023-02-03T13:54:05;8.90;99.90
4934;DHT22;2482;49.154;8.254;2023-02-03T13:56:34;8.90;99.90
4934;DHT22;2482;49.154;8.254;2023-02-03T14:01:34;8.80;99.90
4934;DHT22;2482;49.154;8.254;2023-02-03T14:04:04;8.80;99.90
4934;DHT22;2482;49.154;8.254;2023-02-03T14:14:55;8.80;99.90
4934;DHT22;2482;49.154;8.254;2023-02-03T14:20:02;8.80;99.90
4934;DHT22;2482;49.154;8.254;2023-02-03T14:22:39;8.80;99.90
4934;DHT22;2482;49.154;8.254;2023-02-03T14:25:06;8.80;99.90
4934;DHT22;2482;49.154;8.254;2023-02-03T14:27:33;8.80;99.90
4934;DHT22;2482;49.154;8.254;2023-02-03T14:30:09;8.80;99.90
4934;DHT22;2482;49.154;8.254;2023-02-03T14:32:57;8.80;99.90
4934;DHT22;2482;49.154;8.254;2023-02-03T14:35:33;8.80;99.90
4934;DHT22;2482;49.154;8.254;2023-02-03T14:38:20;8.90;99.90
4934;DHT22;2482;49.154;8.254;2023-02-03T14:40:54;8.80;99.90
4934;DHT22;2482;49.154;8.254;2023-02-03T14:43:49;8.80;99.90
4934;DHT22;2482;49.154;8.254;2023-02-03T14:47:07;8.80;99.90
4934;DHT22;2482;49.154;8.254;2023-02-03T14:55:19;8.90;99.90
4934;DHT22;2482;49.154;8.254;2023-02-03T14:58:06;8.80;99.90
4934;DHT22;2482;49.154;8.254;2023-02-03T15:00:44;8.80;99.90
4934;DHT22;2482;49.154;8.254;2023-02-03T15:05:46;8.70;99.90
4934;DHT22;2482;49.154;8.254;2023-02-03T15:11:30;8.70;99.90
4934;DHT22;2482;49.154;8.254;2023-02-03T15:14:24;8.70;99.90
4934;DHT22;2482;49.154;8.254;2023-02-03T15:16:55;8.60;99.90
4934;DHT22;2482;49.154;8.254;2023-02-03T15:19:31;8.60;99.90
4934;DHT22;2482;49.154;8.254;2023-02-03T15:22:00;8.50;99.90
4934;DHT22;2482;49.154;8.254;2023-02-03T15:24:35;8.60;99.90
4934;DHT22;2482;49.154;8.254;2023-02-03T15:27:03;8.50;99.90
4934;DHT22;2482;49.154;8.254;2023-02-03T15:29:32;8.40;99.90
4934;DHT22;2482;49.154;8.254;2023-02-03T15:32:11;8.40;99.90
4934;DHT22;2482;49.154;8.254;2023-02-03T15:34:47;8.50;99.90
4934;DHT22;2482;49.154;8.254;2023-02-03T15:40:18;8.40;99.90
4934;DHT22;2482;49.154;8.254;2023-02-03T15:48:54;8.30;99.90
4934;DHT22;2482;49.154;8.254;2023-02-03T15:54:26;8.20;99.90
4934;DHT22;2482;49.154;8.254;2023-02-03T15:57:09;8.30;99.90
4934;DHT22;2482;49.154;8.254;2023-02-03T16:00:41;8.30;99.90
4934;DHT22;2482;49.154;8.254;2023-02-03T16:02:55;8.30;99.90
4934;DHT22;2482;49.154;8.254;2023-02-03T16:05:32;8.30;99.90
4934;DHT22;2482;49.154;8.254;2023-02-03T16:08:31;8.20;99.90
4934;DHT22;2482;49.154;8.254;2023-02-03T16:14:09;8.20;99.90
4934;DHT22;2482;49.154;8.254;2023-02-03T16:16:49;8.20;99.90
4934;DHT22;2482;49.154;8.254;2023-02-03T16:19:30;8.20;99.90
4934;DHT22;2482;49.154;8.254;2023-02-03T16:22:26;8.10;99.90
4934;DHT22;2482;49.154;8.254;2023-02-03T16:25:30;8.30;99.90
4934;DHT22;2482;49.154;8.254;2023-02-03T16:28:13;8.30;99.90
4934;DHT22;2482;49.154;8.254;2023-02-03T16:34:17;8.30;99.90
4934;DHT22;2482;49.154;8.254;2023-02-03T16:37:29;8.40;99.90
4934;DHT22;2482;49.154;8.254;2023-02-03T16:40:22;8.30;99.90
4934;DHT22;2482;49.154;8.254;2023-02-03T16:43:11;8.20;99.90
4934;DHT22;2482;49.154;8.254;2023-02-03T16:45:58;8.20;99.90
4934;DHT22;2482;49.154;8.254;2023-02-03T16:48:45;8.10;99.90
4934;DHT22;2482;49.154;8.254;2023-02-03T16:51:38;8.10;99.90
4934;DHT22;2482;49.154;8.254;2023-02-03T16:54:09;8.20;99.90
4934;DHT22;2482;49.154;8.254;2023-02-03T16:56:39;8.20;99.90
4934;DHT22;2482;49.154;8.254;2023-02-03T16:59:06;8.30;99.90
4934;DHT22;2482;49.154;8.254;2023-02-03T17:01:33;8.20;99.90
4934;DHT22;2482;49.154;8.254;2023-02-03T17:04:01;8.20;99.90
4934;DHT22;2482;49.154;8.254;2023-02-03T17:06:28;8.20;99.90
4934;DHT22;2482;49.154;8.254;2023-02-03T17:08:55;8.40;99.90
4934;DHT22;2482;49.154;8.254;2023-02-03T17:11:24;8.40;99.90
4934;DHT22;2482;49.154;8.254;2023-02-03T17:13:52;8.40;99.90
4934;DHT22;2482;49.154;8.254;2023-02-03T17:16:21;8.40;99.90
4934;DHT22;2482;49.154;8.254;2023-02-03T17:18:50;8.30;99.90
4934;DHT22;2482;49.154;8.254;2023-02-03T17:21:20;8.30;99.90
4934;DHT22;2482;49.154;8.254;2023-02-03T17:23:52;8.30;99.90
4934;DHT22;2482;49.154;8.254;2023-02-03T17:26:20;8.30;99.90
4934;DHT22;2482;49.154;8.254;2023-02-03T17:28:47;8.30;99.90
4934;DHT22;2482;49.154;8.254;2023-02-03T17:31:17;8.30;99.90
4934;DHT22;2482;49.154;8.254;2023-02-03T17:33:49;8.30;99.90
4934;DHT22;2482;49.154;8.254;2023-02-03T17:36:17;8.30;99.90
4934;DHT22;2482;49.154;8.254;2023-02-03T17:38:53;8.30;99.90
4934;DHT22;2482;49.154;8.254;2023-02-03T17:41:40;8.30;99.90
4934;DHT22;2482;49.154;8.254;2023-02-03T17:44:26;8.30;99.90
4934;DHT22;2482;49.154;8.254;2023-02-03T17:47:10;8.30;99.90
4934;DHT22;2482;49.154;8.254;2023-02-03T17:49:55;8.30;99.90
4934;DHT22;2482;49.154;8.254;2023-02-03T17:52:40;8.30;99.90
4934;DHT22;2482;49.154;8.254;2023-02-03T17:55:24;8.30;99.90
4934;DHT22;2482;49.154;8.254;2023-02-03T17:57:51;8.30;99.90
4934;DHT22;2482;49.154;8.254;2023-02-03T18:00:18;8.40;99.90
4934;DHT22;2482;49.154;8.254;2023-02-03T18:02:49;8.40;99.90
4934;DHT22;2482;49.154;8.254;2023-02-03T18:05:17;8.30;99.90
4934;DHT22;2482;49.154;8.254;2023-02-03T18:07:44;8.40;99.90
4934;DHT22;2482;49.154;8.254;2023-02-03T18:10:11;8.40;99.90
4934;DHT22;2482;49.154;8.254;2023-02-03T18:12:38;8.40;99.90
4934;DHT22;2482;49.154;8.254;2023-02-03T18:15:05;8.40;99.90
4934;DHT22;2482;49.154;8.254;2023-02-03T18:17:32;8.40;99.90
4934;DHT22;2482;49.154;8.254;2023-02-03T18:20:01;8.40;99.90
4934;DHT22;2482;49.154;8.254;2023-02-03T18:22:29;8.50;99.90
4934;DHT22;2482;49.154;8.254;2023-02-03T18:24:56;8.40;99.90
4934;DHT22;2482;49.154;8.254;2023-02-03T18:27:23;8.40;99.90
4934;DHT22;2482;49.154;8.254;2023-02-03T18:29:50;8.40;99.90
4934;DHT22;2482;49.154;8.254;2023-02-03T18:32:17;8.40;99.90
4934;DHT22;2482;49.154;8.254;2023-02-03T18:34:45;8.40;99.90
4934;DHT22;2482;49.154;8.254;2023-02-03T18:37:12;8.50;99.90
4934;DHT22;2482;49.154;8.254;2023-02-03T18:39:39;8.50;99.90
4934;DHT22;2482;49.154;8.254;2023-02-03T18:42:06;8.40;99.90
4934;DHT22;2482;49.154;8.254;2023-02-03T18:44:33;8.50;99.90
4934;DHT22;2482;49.154;8.254;2023-02-03T18:47:00;8.40;99.90
4934;DHT22;2482;49.154;8.254;2023-02-03T18:49:36;8.50;99.90
4934;DHT22;2482;49.154;8.254;2023-02-03T18:52:04;8.50;99.90
4934;DHT22;2482;49.154;8.254;2023-02-03T18:54:31;8.40;99.90
4934;DHT22;2482;49.154;8.254;2023-02-03T18:56:58;8.40;99.90
4934;DHT22;2482;49.154;8.254;2023-02-03T18:59:25;8.50;99.90
4934;DHT22;2482;49.154;8.254;2023-02-03T19:01:52;8.50;99.90
4934;DHT22;2482;49.154;8.254;2023-02-03T19:04:20;8.50;99.90
4934;DHT22;2482;49.154;8.254;2023-02-03T19:06:47;8.50;99.90
4934;DHT22;2482;49.154;8.254;2023-02-03T19:09:14;8.50;99.90
4934;DHT22;2482;49.154;8.254;2023-02-03T19:11:42;8.50;99.90
4934;DHT22;2482;49.154;8.254;2023-02-03T19:14:11;8.50;99.90
4934;DHT22;2482;49.154;8.254;2023-02-03T19:16:39;8.50;99.90
4934;DHT22;2482;49.154;8.254;2023-02-03T19:19:07;8.50;99.90
4934;DHT22;2482;49.154;8.254;2023-02-03T19:21:34;8.50;99.90
4934;DHT22;2482;49.154;8.254;2023-02-03T19:24:01;8.50;99.90
4934;DHT22;2482;49.154;8.254;2023-02-03T19:26:29;8.50;99.90
4934;DHT22;2482;49.154;8.254;2023-02-03T19:28:56;8.50;99.90
4934;DHT22;2482;49.154;8.254;2023-02-03T19:31:23;8.50;99.90
4934;DHT22;2482;49.154;8.254;2023-02-03T19:33:50;8.50;99.90
4934;DHT22;2482;49.154;8.254;2023-02-03T19:36:17;8.50;99.90
4934;DHT22;2482;49.154;8.254;2023-02-03T19:38:44;8.50;99.90
4934;DHT22;2482;49.154;8.254;2023-02-03T19:41:11;8.60;99.90
4934;DHT22;2482;49.154;8.254;2023-02-03T19:43:39;8.60;99.90